createdAt,value
2022-08-26T00:01:02.171Z,20.30
2022-08-26T00:05:10.746Z,20.70
2022-08-26T00:09:18.331Z,20.50
2022-08-26T00:13:26.405Z,18.10
2022-08-26T00:17:34.342Z,19.50
2022-08-26T00:21:42.511Z,20.00
2022-08-26T00:25:50.465Z,20.60
2022-08-26T00:29:58.258Z,17.80
2022-08-26T00:34:06.063Z,19.80
2022-08-26T00:38:14.326Z,19.20
2022-08-26T00:42:23.718Z,20.40
2022-08-26T00:46:33.536Z,24.60
2022-08-26T00:50:43.673Z,19.10
2022-08-26T00:54:55.992Z,23.90
2022-08-26T00:59:07.568Z,25.60
2022-08-26T01:03:15.809Z,21.20
2022-08-26T01:07:23.422Z,20.50
2022-08-26T01:11:31.267Z,18.90
2022-08-26T01:15:44.495Z,17.80
2022-08-26T01:19:53.924Z,18.00
2022-08-26T01:24:02.107Z,18.20
2022-08-26T01:28:14.478Z,23.40
2022-08-26T01:32:25.949Z,24.10
2022-08-26T01:36:35.227Z,21.50
2022-08-26T01:40:44.501Z,20.30
2022-08-26T01:44:56.087Z,24.70
2022-08-26T01:49:06.892Z,23.10
2022-08-26T01:53:21.409Z,20.40
2022-08-26T01:57:32.210Z,17.20
2022-08-26T02:01:40.247Z,16.60
2022-08-26T02:05:51.467Z,16.80
2022-08-26T02:09:59.772Z,16.80
2022-08-26T02:14:13.112Z,19.50
2022-08-26T02:18:21.309Z,19.30
2022-08-26T02:22:31.995Z,18.60
2022-08-26T02:26:41.806Z,19.00
2022-08-26T02:30:50.497Z,19.70
2022-08-26T02:34:58.665Z,21.90
2022-08-26T02:39:06.784Z,21.00
2022-08-26T02:43:14.856Z,21.60
2022-08-26T02:47:24.905Z,18.40
2022-08-26T02:51:32.572Z,20.20
2022-08-26T02:55:42.512Z,21.40
2022-08-26T02:59:51.041Z,22.40
2022-08-26T03:03:59.608Z,19.50
2022-08-26T03:08:07.228Z,21.70
2022-08-26T03:12:15.068Z,21.30
2022-08-26T03:16:23.171Z,20.50
2022-08-26T03:20:31.900Z,19.20
2022-08-26T03:24:40.257Z,18.50
2022-08-26T03:29:05.584Z,19.50
2022-08-26T03:33:14.350Z,21.40
2022-08-26T03:37:22.415Z,22.30
2022-08-26T03:41:33.142Z,20.70
2022-08-26T03:45:41.260Z,20.70
2022-08-26T03:49:50.711Z,19.40
2022-08-26T03:54:01.078Z,23.90
2022-08-26T03:58:10.330Z,21.00
2022-08-26T04:02:19.520Z,23.20
2022-08-26T04:06:29.743Z,21.50
2022-08-26T04:10:40.591Z,19.80
2022-08-26T04:14:48.663Z,21.60
2022-08-26T04:18:57.526Z,21.00
2022-08-26T04:23:05.831Z,20.70
2022-08-26T04:27:15.241Z,19.70
2022-08-26T04:31:26.519Z,19.80
2022-08-26T04:35:38.725Z,27.00
2022-08-26T04:39:54.361Z,21.80
2022-08-26T04:44:09.902Z,20.70
2022-08-26T04:48:18.146Z,20.20
2022-08-26T04:52:25.918Z,19.50
2022-08-26T04:56:38.477Z,18.60
2022-08-26T05:00:49.226Z,18.60
2022-08-26T05:04:57.297Z,22.70
2022-08-26T05:09:05.200Z,21.40
2022-08-26T05:13:15.544Z,23.00
2022-08-26T05:17:23.828Z,19.70
2022-08-26T05:21:31.586Z,18.10
2022-08-26T05:25:42.164Z,19.50
2022-08-26T05:29:54.353Z,19.20
2022-08-26T05:34:05.053Z,19.70
2022-08-26T05:38:15.815Z,18.20
2022-08-26T05:42:25.416Z,17.90
2022-08-26T05:46:33.217Z,17.50
2022-08-26T05:50:47.794Z,19.00
2022-08-26T05:54:55.741Z,19.50
2022-08-26T05:59:03.709Z,21.80
2022-08-26T06:03:14.615Z,21.90
2022-08-26T06:07:43.772Z,24.40
2022-08-26T06:11:51.607Z,22.40
2022-08-26T06:16:00.563Z,22.20
2022-08-26T06:20:09.807Z,20.30
2022-08-26T06:24:35.307Z,25.10
2022-08-26T06:28:45.490Z,17.60
2022-08-26T06:32:53.502Z,18.00
2022-08-26T06:37:03.757Z,17.20
2022-08-26T06:41:12.097Z,18.30
2022-08-26T06:45:20.027Z,19.40
2022-08-26T06:49:28.128Z,20.00
2022-08-26T06:53:37.002Z,20.00
2022-08-26T06:57:44.888Z,19.60
2022-08-26T07:01:55.227Z,20.60
2022-08-26T07:06:07.385Z,22.70
2022-08-26T07:10:15.782Z,25.70
2022-08-26T07:14:26.179Z,28.30
2022-08-26T07:18:34.019Z,27.30
2022-08-26T07:22:42.563Z,22.60
2022-08-26T07:26:50.536Z,23.20
2022-08-26T07:31:00.747Z,24.60
2022-08-26T07:35:09.928Z,27.30
2022-08-26T07:39:17.514Z,23.60
2022-08-26T07:43:25.268Z,25.50
2022-08-26T07:47:33.429Z,27.50
2022-08-26T07:51:42.389Z,29.60
2022-08-26T07:55:50.138Z,28.50
2022-08-26T07:59:58.505Z,29.10
2022-08-26T08:04:09.066Z,31.00
2022-08-26T08:08:27.652Z,29.30
2022-08-26T08:12:37.347Z,35.40
2022-08-26T08:16:47.021Z,35.60
2022-08-26T08:21:21.081Z,32.40
2022-08-26T08:25:30.917Z,36.50
2022-08-26T08:29:39.648Z,40.80
2022-08-26T08:33:48.894Z,41.10
2022-08-26T08:38:00.129Z,37.60
2022-08-26T08:42:35.862Z,38.20
2022-08-26T08:46:44.875Z,36.90
2022-08-26T08:50:54.036Z,34.70
2022-08-26T08:55:02.257Z,37.00
2022-08-26T08:59:16.462Z,32.70
2022-08-26T09:03:42.847Z,37.00
2022-08-26T09:07:53.824Z,32.60
2022-08-26T09:12:04.386Z,34.10
2022-08-26T09:16:15.404Z,39.90
2022-08-26T09:20:37.381Z,41.20
2022-08-26T09:24:48.482Z,41.80
2022-08-26T09:29:00.915Z,41.30
2022-08-26T09:33:11.357Z,38.80
2022-08-26T09:37:40.157Z,33.60
2022-08-26T09:42:07.172Z,36.00
2022-08-26T09:46:19.100Z,29.80
2022-08-26T09:50:30.436Z,34.10
2022-08-26T09:54:39.288Z,23.30
2022-08-26T09:58:49.250Z,21.20
2022-08-26T10:03:08.220Z,19.10
2022-08-26T10:07:16.621Z,20.80
2022-08-26T10:11:31.381Z,18.10
2022-08-26T10:15:50.005Z,17.40
2022-08-26T10:20:01.580Z,15.90
2022-08-26T10:24:11.994Z,17.30
2022-08-26T10:28:27.402Z,17.20
2022-08-26T10:32:41.502Z,13.10
2022-08-26T10:37:16.157Z,16.10
2022-08-26T10:41:25.907Z,12.80
2022-08-26T10:45:38.568Z,11.90
2022-08-26T10:49:47.263Z,12.40
2022-08-26T10:53:58.902Z,13.20
2022-08-26T10:58:26.396Z,12.00
2022-08-26T11:02:40.612Z,13.30
2022-08-26T11:07:35.952Z,15.00
2022-08-26T11:11:53.777Z,12.00
2022-08-26T11:16:02.671Z,15.10
2022-08-26T11:20:14.154Z,13.10
2022-08-26T11:24:47.638Z,13.10
2022-08-26T11:28:56.201Z,12.10
2022-08-26T11:33:03.827Z,13.60
2022-08-26T11:41:32.001Z,10.50
2022-08-26T11:45:42.200Z,11.00
2022-08-26T11:49:49.950Z,13.20
2022-08-26T11:54:12.873Z,11.10
2022-08-26T11:58:21.349Z,12.20
2022-08-26T12:02:30.886Z,19.70
2022-08-26T12:06:45.696Z,13.80
2022-08-26T12:11:06.922Z,13.20
2022-08-26T12:15:19.333Z,14.10
2022-08-26T12:19:33.016Z,10.40
2022-08-26T12:23:48.529Z,13.80
2022-08-26T12:28:09.583Z,13.20
2022-08-26T12:32:32.250Z,14.70
2022-08-26T12:36:49.278Z,15.50
2022-08-26T12:41:10.658Z,12.20
2022-08-26T12:45:33.535Z,14.90
2022-08-26T12:49:50.451Z,12.50
2022-08-26T12:53:59.427Z,13.20
2022-08-26T12:58:29.752Z,11.80
2022-08-26T13:02:41.449Z,11.80
2022-08-26T13:06:49.418Z,10.90
2022-08-26T13:11:10.669Z,13.40
2022-08-26T13:15:18.167Z,13.50
2022-08-26T13:19:27.418Z,13.20
2022-08-26T13:23:38.386Z,13.80
2022-08-26T13:27:49.296Z,13.00
2022-08-26T13:31:58.014Z,15.30
2022-08-26T13:36:09.250Z,12.20
2022-08-26T13:40:17.889Z,11.70
2022-08-26T13:44:25.677Z,11.60
2022-08-26T13:48:34.164Z,13.90
2022-08-26T13:52:41.440Z,13.60
2022-08-26T13:56:49.320Z,13.40
2022-08-26T14:00:58.212Z,11.50
2022-08-26T14:05:06.330Z,12.40
2022-08-26T14:09:14.161Z,11.10
2022-08-26T14:13:22.657Z,12.30
2022-08-26T14:17:32.621Z,11.10
2022-08-26T14:21:41.034Z,11.20
2022-08-26T14:25:49.046Z,14.20
2022-08-26T14:29:57.414Z,12.90
2022-08-26T14:34:09.775Z,12.10
2022-08-26T14:38:17.993Z,12.60
2022-08-26T14:42:31.507Z,14.90
2022-08-26T14:46:43.993Z,15.90
2022-08-26T14:50:52.103Z,9.50
2022-08-26T14:55:02.931Z,12.00
2022-08-26T14:59:12.120Z,11.10
2022-08-26T15:03:21.250Z,12.30
2022-08-26T15:07:31.409Z,12.10
2022-08-26T15:11:39.820Z,10.30
2022-08-26T15:15:48.511Z,9.90
2022-08-26T15:19:56.211Z,11.70
2022-08-26T15:24:04.619Z,8.50
2022-08-26T15:28:12.489Z,12.50
2022-08-26T15:32:20.144Z,11.50
2022-08-26T15:36:30.461Z,15.70
2022-08-26T15:40:40.462Z,10.70
2022-08-26T15:44:50.528Z,16.90
2022-08-26T15:48:58.622Z,11.50
2022-08-26T15:53:08.145Z,12.30
2022-08-26T15:57:18.701Z,10.10
2022-08-26T16:01:29.104Z,10.30
2022-08-26T16:05:39.665Z,9.50
2022-08-26T16:09:49.202Z,9.90
2022-08-26T16:14:01.788Z,11.40
2022-08-26T16:18:11.670Z,11.60
2022-08-26T16:22:19.825Z,12.20
2022-08-26T16:26:29.965Z,10.80
2022-08-26T16:30:38.061Z,13.00
2022-08-26T16:34:56.410Z,13.00
2022-08-26T16:39:05.466Z,11.60
2022-08-26T16:43:15.206Z,14.80
2022-08-26T16:47:23.579Z,10.70
2022-08-26T16:51:32.764Z,9.90
2022-08-26T16:55:49.951Z,13.60
2022-08-26T16:59:57.917Z,11.30
2022-08-26T17:04:06.492Z,11.80
2022-08-26T17:08:21.846Z,11.40
2022-08-26T17:12:38.552Z,11.80
2022-08-26T17:16:47.320Z,13.50
2022-08-26T17:20:56.743Z,10.00
2022-08-26T17:25:05.809Z,12.50
2022-08-26T17:29:14.070Z,10.40
2022-08-26T17:33:24.421Z,9.90
2022-08-26T17:37:34.843Z,11.80
2022-08-26T17:41:45.228Z,13.00
2022-08-26T17:45:53.030Z,16.00
2022-08-26T17:50:01.729Z,13.60
2022-08-26T17:54:09.508Z,17.40
2022-08-26T17:58:17.347Z,13.90
2022-08-26T18:02:25.787Z,12.80
2022-08-26T18:06:33.972Z,12.20
2022-08-26T18:10:41.565Z,8.60
2022-08-26T18:14:51.195Z,8.60
2022-08-26T18:19:00.361Z,11.30
2022-08-26T18:23:09.913Z,13.60
2022-08-26T18:27:18.252Z,13.00
2022-08-26T18:31:27.027Z,13.40
2022-08-26T18:35:35.267Z,13.10
2022-08-26T18:39:43.308Z,12.50
2022-08-26T18:43:51.842Z,8.50
2022-08-26T18:48:00.078Z,13.70
2022-08-26T18:52:08.286Z,12.20
2022-08-26T18:56:18.482Z,14.20
2022-08-26T19:00:26.573Z,13.60
2022-08-26T19:04:34.846Z,12.20
2022-08-26T19:08:44.540Z,9.30
2022-08-26T19:12:54.516Z,11.10
2022-08-26T19:17:05.891Z,13.60
2022-08-26T19:21:13.504Z,12.30
2022-08-26T19:25:22.922Z,13.10
2022-08-26T19:29:35.292Z,11.80
2022-08-26T19:33:45.591Z,15.50
2022-08-26T19:37:53.104Z,20.90
2022-08-26T19:42:01.103Z,19.10
2022-08-26T19:46:14.812Z,14.30
2022-08-26T19:50:22.896Z,12.40
2022-08-26T19:54:31.275Z,13.50
2022-08-26T19:58:40.761Z,17.30
2022-08-26T20:02:48.960Z,13.90
2022-08-26T20:06:57.771Z,11.20
2022-08-26T20:11:09.296Z,15.60
2022-08-26T20:15:18.242Z,17.40
2022-08-26T20:19:43.532Z,19.70
2022-08-26T20:23:52.596Z,15.40
2022-08-26T20:28:01.814Z,15.70
2022-08-26T20:32:12.382Z,16.00
2022-08-26T20:36:21.618Z,12.70
2022-08-26T20:40:29.441Z,13.20
2022-08-26T20:44:38.052Z,14.40
2022-08-26T20:48:51.199Z,12.40
2022-08-26T20:52:59.602Z,15.10
2022-08-26T20:57:07.776Z,15.40
2022-08-26T21:01:22.821Z,16.50
2022-08-26T21:05:32.309Z,15.20
2022-08-26T21:09:40.241Z,14.30
2022-08-26T21:14:06.969Z,12.80
2022-08-26T21:18:18.973Z,11.90
2022-08-26T21:22:27.193Z,14.20
2022-08-26T21:26:35.278Z,13.50
2022-08-26T21:30:43.576Z,15.90
2022-08-26T21:34:51.391Z,16.10
2022-08-26T21:39:00.239Z,15.50
2022-08-26T21:43:09.009Z,18.10
2022-08-26T21:47:22.367Z,14.20
2022-08-26T21:51:32.430Z,14.20
2022-08-26T21:55:42.687Z,19.10
2022-08-26T21:59:50.632Z,15.80
2022-08-26T22:03:58.782Z,13.80
2022-08-26T22:08:06.979Z,19.20
2022-08-26T22:12:18.312Z,15.90
2022-08-26T22:16:28.803Z,24.80
2022-08-26T22:20:38.456Z,25.30
2022-08-26T22:24:47.363Z,21.00
2022-08-26T22:28:58.760Z,16.90
2022-08-26T22:33:08.552Z,16.40
2022-08-26T22:37:17.115Z,14.80
2022-08-26T22:41:25.055Z,14.60
2022-08-26T22:45:33.840Z,18.40
2022-08-26T22:49:42.114Z,17.50
2022-08-26T22:53:50.182Z,21.40
2022-08-26T22:57:58.397Z,17.80
2022-08-26T23:02:06.582Z,17.00
2022-08-26T23:06:16.929Z,15.90
2022-08-26T23:10:25.506Z,16.50
2022-08-26T23:14:35.508Z,14.40
2022-08-26T23:18:43.596Z,18.30
2022-08-26T23:22:51.629Z,19.10
2022-08-26T23:26:59.284Z,16.30
2022-08-26T23:31:07.949Z,16.50
2022-08-26T23:35:22.280Z,16.00
2022-08-26T23:39:30.059Z,14.40
2022-08-26T23:43:38.102Z,18.20
2022-08-26T23:47:47.659Z,13.80
2022-08-26T23:52:13.306Z,13.30
2022-08-26T23:56:21.490Z,13.40
